^^
Station Historical Data
Daily Summary for November 12, 2017 Units:  Metric    English   Both
« Previous Day
Next Day »
Daily Weekly Monthly Yearly Custom
  High: Low: Average:
Temperature: 33.6 °C 14.8 °C 21.6 °C
Dew Point: 8.2 °C -4 °C 4.6 °C
Humidity: 59% 9% 38%
Wind Speed: 33.8km/h 0km/h 12.1km/h
Wind Gust: 38.6km/h - -
Wind- - SSW
Pressure: 1009.4 hPa 1004.6 hPa -
Precipitation: 0 mm    
Historical Graphs
 
 
Tabular Data for November 12, 2017
Time Temperature Dew Point Pressure Wind Wind Speed Wind Gust Humidity Rainfall Rate (Hourly) solar Conditions
00:01 18.7 °C 8.1 °C 1009 hPa SSW 13 km/h 20.9 km/h 50% 0 mm 0.0 W/m2
00:06 18.6 °C 8 °C 1009 hPa SSW 16.3 km/h 19.3 km/h 50% 0 mm 0.0 W/m2
00:16 18.4 °C 7.8 °C 1008.7 hPa SSW 17.7 km/h 17.7 km/h 50% 0 mm 0.0 W/m2
00:21 18.4 °C 7.8 °C 1008.7 hPa SSW 17.7 km/h 17.7 km/h 50% 0 mm 0.0 W/m2
00:26 18.4 °C 7.8 °C 1008.7 hPa SSW 11.1 km/h 19.3 km/h 50% 0 mm 0.0 W/m2
00:36 18.3 °C 7.7 °C 1008.7 hPa SSW 19.5 km/h 20.9 km/h 50% 0 mm 0.0 W/m2
00:45 18.2 °C 7.6 °C 1008.7 hPa SSW 11.1 km/h 17.7 km/h 50% 0 mm 0.0 W/m2
00:50 18.2 °C 7.6 °C 1008.7 hPa SSW 13 km/h 19.3 km/h 50% 0 mm 0.0 W/m2
00:55 18.1 °C 7.2 °C 1008.7 hPa SSW 13 km/h 17.7 km/h 49% 0 mm 0.0 W/m2
01:00 18.1 °C 7.2 °C 1008.4 hPa SSW 13 km/h 14.5 km/h 49% 0 mm 0.0 W/m2
01:05 18.1 °C 7.2 °C 1008.4 hPa SSW 14.3 km/h 14.5 km/h 49% 0 mm 0.0 W/m2
01:10 18.1 °C 7.2 °C 1008.4 hPa SSW 7.9 km/h 11.3 km/h 49% 0 mm 0.0 W/m2
01:15 18.1 °C 7.2 °C 1008.4 hPa SSW 7.9 km/h 12.9 km/h 49% 0 mm 0.0 W/m2
01:21 18 °C 6.8 °C 1008.4 hPa SSW 11.1 km/h 11.3 km/h 48% 0 mm 0.0 W/m2
01:26 17.9 °C 7 °C 1008.4 hPa SSW 9.7 km/h 12.9 km/h 49% 0 mm 0.0 W/m2
01:36 17.8 °C 6.9 °C 1008.4 hPa SSW 7.9 km/h 11.3 km/h 49% 0 mm 0.0 W/m2
01:41 17.7 °C 6.8 °C 1008.4 hPa SSW 9.7 km/h 12.9 km/h 49% 0 mm 0.0 W/m2
01:46 17.7 °C 6.8 °C 1008.4 hPa SSW 9.7 km/h 11.3 km/h 49% 0 mm 0.0 W/m2
01:56 17.3 °C 7.3 °C 1008.4 hPa SW 9.7 km/h 11.3 km/h 52% 0 mm 0.0 W/m2
02:01 17.2 °C 7.5 °C 1008.4 hPa SW 11.1 km/h 14.5 km/h 53% 0 mm 0.0 W/m2
02:11 17.1 °C 7.4 °C 1008 hPa SW 9.7 km/h 12.9 km/h 53% 0 mm 0.0 W/m2
02:16 17 °C 7.3 °C 1008 hPa SW 11.1 km/h 11.3 km/h 53% 0 mm 0.0 W/m2
02:21 16.9 °C 7.3 °C 1008 hPa SW 7.9 km/h 9.7 km/h 53% 0 mm 0.0 W/m2
02:27 16.9 °C 7.3 °C 1008 hPa SW 7.9 km/h 11.3 km/h 53% 0 mm 0.0 W/m2
02:37 16.7 °C 6.8 °C 1008 hPa SW 7.9 km/h 9.7 km/h 52% 0 mm 0.0 W/m2
02:47 16.7 °C 6.5 °C 1008 hPa SW 9.7 km/h 12.9 km/h 51% 0 mm 0.0 W/m2
02:52 16.7 °C 6.2 °C 1008 hPa SW 13 km/h 13 km/h 50% 0 mm 0.0 W/m2
02:57 16.7 °C 6.2 °C 1008 hPa SW 7.9 km/h 11.3 km/h 50% 0 mm 0.0 W/m2
03:02 16.6 °C 6.1 °C 1008 hPa SW 6.4 km/h 8 km/h 50% 0 mm 0.0 W/m2
03:07 16.6 °C 5.8 °C 1008 hPa SW 9.7 km/h 11.3 km/h 49% 0 mm 0.0 W/m2
03:12 16.5 °C 6.3 °C 1008 hPa SW 9.7 km/h 9.7 km/h 51% 0 mm 0.0 W/m2
03:17 16.4 °C 6.5 °C 1008 hPa SW 7.9 km/h 11.3 km/h 52% 0 mm 0.0 W/m2
03:22 16.3 °C 6.4 °C 1008 hPa SW 7.9 km/h 9.7 km/h 52% 0 mm 0.0 W/m2
03:27 16.2 °C 6.3 °C 1008 hPa SW 9.7 km/h 11.3 km/h 52% 0 mm 0.0 W/m2
03:32 16.2 °C 6.3 °C 1007.7 hPa SW 7.9 km/h 11.3 km/h 52% 0 mm 0.0 W/m2
03:37 16.2 °C 6.3 °C 1007.7 hPa SW 9.7 km/h 11.3 km/h 52% 0 mm 0.0 W/m2
03:42 16.1 °C 6.5 °C 1007.7 hPa SW 9.7 km/h 12.9 km/h 53% 0 mm 0.0 W/m2
03:47 16.2 °C 6.6 °C 1008 hPa SW 9.7 km/h 12.9 km/h 53% 0 mm 0.0 W/m2
03:53 16.2 °C 6.9 °C 1008 hPa SW 11.1 km/h 11.3 km/h 54% 0 mm 0.0 W/m2
03:58 16.1 °C 6.8 °C 1008 hPa SW 7.9 km/h 11.3 km/h 54% 0 mm 0.0 W/m2
04:03 16.1 °C 6.8 °C 1008 hPa SW 6.4 km/h 9.7 km/h 54% 0 mm 0.0 W/m2
04:08 16 °C 7 °C 1008 hPa SW 7.9 km/h 8 km/h 55% 0 mm 0.0 W/m2
04:13 15.9 °C 6.9 °C 1008 hPa SW 3.2 km/h 6.4 km/h 55% 0 mm 0.0 W/m2
04:18 15.8 °C 6.8 °C 1008 hPa Calm     55% 0 mm 0.0 W/m2
04:24 15.8 °C 6.8 °C 1008 hPa Calm     55% 0 mm 0.0 W/m2
04:34 15.6 °C 6.9 °C 1008 hPa Calm     56% 0 mm 0.0 W/m2
04:39 15.5 °C 6.8 °C 1008 hPa Calm     56% 0 mm 0.0 W/m2
04:44 15.5 °C 6.8 °C 1008 hPa SW 11.1 km/h 12.9 km/h 56% 0 mm 0.0 W/m2
04:50 15.6 °C 6.9 °C 1008 hPa SW 9.7 km/h 11.3 km/h 56% 0 mm 0.0 W/m2
05:00 15.4 °C 6.9 °C 1008 hPa SW 6.4 km/h 11.3 km/h 57% 0 mm 0.0 W/m2
05:15 15.3 °C 7.1 °C 1008 hPa SW 9.7 km/h 11.3 km/h 58% 0 mm 0.0 W/m2
05:30 15.3 °C 7.1 °C 1008.4 hPa SW 9.7 km/h 11.3 km/h 58% 0 mm 0.0 W/m2
05:35 15.3 °C 7.1 °C 1008.4 hPa SW 11.1 km/h 11.3 km/h 58% 0 mm 0.0 W/m2
05:40 15.2 °C 7 °C 1008.4 hPa SW 11.1 km/h 12.9 km/h 58% 0 mm 0.0 W/m2
05:45 15.1 °C 6.9 °C 1008.4 hPa SW 7.9 km/h 12.9 km/h 58% 0 mm 0.0 W/m2
05:50 15 °C 6.8 °C 1008.4 hPa SW 9.7 km/h 9.7 km/h 58% 0 mm 0.0 W/m2
05:55 14.9 °C 7 °C 1008.4 hPa SW 7.9 km/h 8 km/h 59% 0 mm 7.0 W/m2
06:00 14.8 °C 6.9 °C 1008.7 hPa SW 6.4 km/h 8 km/h 59% 0 mm 9.0 W/m2
06:05 14.8 °C 6.9 °C 1008.7 hPa SW 4.7 km/h 6.4 km/h 59% 0 mm 12.0 W/m2
06:10 14.8 °C 6.9 °C 1008.7 hPa SW 4.7 km/h 8 km/h 59% 0 mm 18.0 W/m2
06:16 14.8 °C 6.9 °C 1009 hPa SW 4.7 km/h 6.4 km/h 59% 0 mm 25.0 W/m2
06:26 15.1 °C 7.1 °C 1009 hPa SW 7.9 km/h 11.3 km/h 59% 0 mm 51.0 W/m2
06:41 15.8 °C 7.3 °C 1009.4 hPa Calm     57% 0 mm 102.0 W/m2
06:48 15.9 °C 7.1 °C 1009 hPa Calm     56% 0 mm 118.0 W/m2
06:55 16.1 °C 7.3 °C 1009 hPa Calm     56% 0 mm 142.0 W/m2
07:05 16.4 °C 7.1 °C 1008.7 hPa Calm     54% 0 mm 183.0 W/m2
07:13 16.8 °C 6.9 °C 1009 hPa Calm     52% 0 mm 227.0 W/m2
08:19 20 °C 3.2 °C 1009 hPa SW 4.7 km/h 9.7 km/h 33% 0 mm 452.0 W/m2
08:26 20.2 °C 3.4 °C 1009.4 hPa Calm   1.6 km/h 33% 0 mm 469.0 W/m2
09:08 22.5 °C 0.3 °C 1009 hPa SW 7.9 km/h 11.3 km/h 23% 0 mm 601.0 W/m2
09:16 23.1 °C 0.2 °C 1009 hPa SW 9.7 km/h 11.3 km/h 22% 0 mm 631.0 W/m2
09:21 23.3 °C -0.9 °C 1009 hPa SW 11.1 km/h 12.9 km/h 20% 0 mm 649.0 W/m2
09:25 23.5 °C -0.8 °C 1009 hPa SW 7.9 km/h 8 km/h 20% 0 mm 661.0 W/m2
09:35 23.9 °C -0.4 °C 1009 hPa SW 6.4 km/h 9.7 km/h 20% 0 mm 689.0 W/m2
09:40 24.1 °C -0.3 °C 1008.7 hPa SW 6.4 km/h 9.7 km/h 20% 0 mm 705.0 W/m2
09:45 24.3 °C -0.8 °C 1008.7 hPa SW 6.4 km/h 12.9 km/h 19% 0 mm 719.0 W/m2
09:50 24.5 °C -0.6 °C 1008.4 hPa SW 11.1 km/h 11.3 km/h 19% 0 mm 728.0 W/m2
09:55 24.8 °C -0.4 °C 1008.7 hPa Calm   6.4 km/h 19% 0 mm 745.0 W/m2
10:00 25.1 °C -0.9 °C 1008.7 hPa Calm     18% 0 mm 759.0 W/m2
10:12 25.7 °C -0.4 °C 1008.7 hPa Calm     18% 0 mm 786.0 W/m2
10:18 26 °C -0.2 °C 1008.7 hPa Calm   4.8 km/h 18% 0 mm 796.0 W/m2
10:20 26.2 °C 0 °C 1008.7 hPa Calm     18% 0 mm 807.0 W/m2
10:32 26.7 °C 0.4 °C 1008.4 hPa Calm     18% 0 mm 830.0 W/m2
11:13 28.1 °C -0.1 °C 1008 hPa SSW 6.4 km/h 12.9 km/h 16% 0 mm 898.0 W/m2
11:21 28.2 °C -0.9 °C 1008 hPa SW 13 km/h 14.5 km/h 15% 0 mm 911.0 W/m2
11:26 28.4 °C 0.2 °C 1008 hPa WSW 11.1 km/h 20.9 km/h 16% 0 mm 918.0 W/m2
11:33 28.5 °C -0.7 °C 1008 hPa SW 14.3 km/h 19.3 km/h 15% 0 mm 921.0 W/m2
11:38 28.6 °C -0.6 °C 1008 hPa SW 7.9 km/h 14.5 km/h 15% 0 mm 926.0 W/m2
11:41 28.7 °C -0.5 °C 1007.7 hPa SW 11.1 km/h 14.5 km/h 15% 0 mm 933.0 W/m2
11:56 28.9 °C -0.3 °C 1007.7 hPa SW 17.7 km/h 17.7 km/h 15% 0 mm 939.0 W/m2
12:06 29.4 °C -0.9 °C 1007.7 hPa SW 9.7 km/h 16.1 km/h 14% 0 mm 946.0 W/m2
12:21 29.9 °C -1.5 °C 1007.3 hPa SSW 7.9 km/h 14.5 km/h 13% 0 mm 949.0 W/m2
12:36 30 °C -1.4 °C 1007.3 hPa SSW 9.7 km/h 14.5 km/h 13% 0 mm 953.0 W/m2
12:42 30 °C -1.4 °C 1007.3 hPa SSW 9.7 km/h 14.5 km/h 13% 0 mm 953.0 W/m2
12:52 30.9 °C -3 °C 1007 hPa SW 6.4 km/h 11.3 km/h 11% 0 mm 951.0 W/m2
13:13 31.1 °C -2.8 °C 1007 hPa SW 4.7 km/h 14.5 km/h 11% 0 mm 946.0 W/m2
13:38 31.2 °C -2.8 °C 1006.7 hPa Calm   3.2 km/h 11% 0 mm 921.0 W/m2
14:07 31.9 °C -2.2 °C 1006.3 hPa SW 17.7 km/h 20.9 km/h 11% 0 mm 882.0 W/m2
14:12 32 °C -2.1 °C 1006 hPa SW 4.7 km/h 14.5 km/h 11% 0 mm 865.0 W/m2
14:32 32.4 °C -3.1 °C 1005.6 hPa SW 9.7 km/h 14.5 km/h 10% 0 mm 840.0 W/m2
14:42 32.7 °C -2.9 °C 1005.6 hPa SW 11.1 km/h 14.5 km/h 10% 0 mm 821.0 W/m2
14:52 33.1 °C -4 °C 1005.3 hPa Calm   12.9 km/h 9% 0 mm 798.0 W/m2
14:58 33.1 °C -2.6 °C 1005.3 hPa SW 17.7 km/h 17.7 km/h 10% 0 mm 773.0 W/m2
15:13 33.2 °C -2.5 °C 1005.3 hPa SSW 9.7 km/h 19.3 km/h 10% 0 mm 751.0 W/m2
15:25 33.6 °C -3.6 °C 1005 hPa SSW 11.1 km/h 22.5 km/h 9% 0 mm 714.0 W/m2
15:38 33.6 °C -2.2 °C 1005 hPa SSW 17.7 km/h 19.3 km/h 10% 0 mm 682.0 W/m2
15:54 33.5 °C -2.3 °C 1005 hPa SSW 17.7 km/h 17.7 km/h 10% 0 mm 638.0 W/m2
16:09 33.3 °C -1.1 °C 1005 hPa South 16.3 km/h 16.3 km/h 11% 0 mm 592.0 W/m2
16:23 33.2 °C 1.1 °C 1005 hPa South 19.5 km/h 25.7 km/h 13% 0 mm 548.0 W/m2
16:33 32.6 °C 0.6 °C 1004.6 hPa SSW 14.3 km/h 24.1 km/h 13% 0 mm 513.0 W/m2
16:44 32.4 °C 2.4 °C 1004.6 hPa South 30.6 km/h 30.6 km/h 15% 0 mm 478.0 W/m2
16:56 31.9 °C 3.8 °C 1004.6 hPa SSW 33.8 km/h 33.8 km/h 17% 0 mm 431.0 W/m2
17:04 31.4 °C 3.4 °C 1004.6 hPa SSW 25.9 km/h 29 km/h 17% 0 mm 396.0 W/m2
17:09 31.1 °C 4 °C 1004.6 hPa South 32 km/h 37 km/h 18% 0 mm 378.0 W/m2
17:14 30.7 °C 4.4 °C 1005 hPa SSW 33.8 km/h 33.8 km/h 19% 0 mm 359.0 W/m2
17:19 30.6 °C 4.3 °C 1005 hPa SSW 24.1 km/h 38.6 km/h 19% 0 mm 341.0 W/m2
18:09 27.6 °C 6.4 °C 1005.6 hPa SSW 20.9 km/h 38.6 km/h 26% 0 mm 176.0 W/m2
18:21 27.1 °C 6.5 °C 1005.6 hPa SSW 32 km/h 33.8 km/h 27% 0 mm 116.0 W/m2
18:29 26.7 °C 6.1 °C 1005.6 hPa SW 32 km/h 32.2 km/h 27% 0 mm 81.0 W/m2
18:34 26.5 °C 6.5 °C 1005.6 hPa SSW 17.7 km/h 30.6 km/h 28% 0 mm 65.0 W/m2
18:42 26.6 °C 6.1 °C 1005.6 hPa SSW 24.1 km/h 32.2 km/h 27% 0 mm 47.0 W/m2
19:05 25.7 °C 6.3 °C 1006 hPa SSW 28.8 km/h 30.6 km/h 29% 0 mm 11.0 W/m2
19:20 25.1 °C 6.8 °C 1006.3 hPa SSW 27.4 km/h 33.8 km/h 31% 0 mm 0.0 W/m2
19:37 24.4 °C 7.5 °C 1006.7 hPa SSW 24.1 km/h 27.4 km/h 34% 0 mm 0.0 W/m2
19:57 23.4 °C 7.9 °C 1006.7 hPa SSW 20.9 km/h 29 km/h 37% 0 mm 0.0 W/m2
20:17 22.3 °C 8 °C 1007 hPa SSW 32 km/h 32.2 km/h 40% 0 mm 0.0 W/m2
20:36 21.7 °C 8.2 °C 1008 hPa SSW 14.3 km/h 29 km/h 42% 0 mm 0.0 W/m2
20:50 21.2 °C 8.1 °C 1008.4 hPa SSW 25.9 km/h 27.4 km/h 43% 0 mm 0.0 W/m2
21:05 20.7 °C 8 °C 1008.4 hPa South 27.4 km/h 29 km/h 44% 0 mm 0.0 W/m2
21:18 20.2 °C 7.9 °C 1008.4 hPa SSW 22.7 km/h 27.4 km/h 45% 0 mm 0.0 W/m2
21:27 20 °C 8 °C 1008.7 hPa SSW 24.1 km/h 35.4 km/h 46% 0 mm 0.0 W/m2
21:35 19.8 °C 7.8 °C 1008.7 hPa SSW 19.5 km/h 30.6 km/h 46% 0 mm 0.0 W/m2
21:46 19.6 °C 7.7 °C 1008.7 hPa South 20.9 km/h 25.7 km/h 46% 0 mm 0.0 W/m2
22:17 19 °C 7.4 °C 1009 hPa SSW 24.1 km/h 27.4 km/h 47% 0 mm 0.0 W/m2
22:26 18.9 °C 7.3 °C 1009 hPa South 17.7 km/h 24.1 km/h 47% 0 mm 0.0 W/m2
22:35 18.8 °C 7.2 °C 1009 hPa SSW 22.7 km/h 22.7 km/h 47% 0 mm 0.0 W/m2
22:40 18.8 °C 7.2 °C 1009 hPa SSW 17.7 km/h 19.3 km/h 47% 0 mm 0.0 W/m2
22:45 18.7 °C 7.5 °C 1009.4 hPa SSW 17.7 km/h 20.9 km/h 48% 0 mm 0.0 W/m2
22:55 18.6 °C 7.1 °C 1009.4 hPa South 20.9 km/h 25.7 km/h 47% 0 mm 0.0 W/m2
23:00 18.5 °C 7 °C 1009.4 hPa South 19.5 km/h 24.1 km/h 47% 0 mm 0.0 W/m2
23:05 18.4 °C 6.9 °C 1009.4 hPa South 17.7 km/h 25.7 km/h 47% 0 mm 0.0 W/m2
23:10 18.3 °C 6.8 °C 1009.4 hPa SSW 19.5 km/h 19.5 km/h 47% 0 mm 0.0 W/m2
23:20 18.2 °C 6.7 °C 1009 hPa South 13 km/h 17.7 km/h 47% 0 mm 0.0 W/m2
23:25 18.2 °C 6.7 °C 1009 hPa South 16.3 km/h 17.7 km/h 47% 0 mm 0.0 W/m2
23:30 18.2 °C 6.7 °C 1009 hPa South 17.7 km/h 19.3 km/h 47% 0 mm 0.0 W/m2
23:40 18.1 °C 6.6 °C 1009 hPa South 13 km/h 17.7 km/h 47% 0 mm 0.0 W/m2
23:45 18 °C 6.5 °C 1008.7 hPa SSW 11.1 km/h 16.1 km/h 47% 0 mm 0.0 W/m2
23:50 18 °C 6.5 °C 1009 hPa SSW 7.9 km/h 16.1 km/h 47% 0 mm 0.0 W/m2
23:55 17.9 °C 6.4 °C 1009 hPa SSW 16.3 km/h 19.3 km/h 47% 0 mm 0.0 W/m2
Canyon Roadhouse, Fishriver Canyon, Namibia
Compliments of Weather Underground - 2.5 mb